createdAt,value
2023-04-07T00:00:37.749Z,0.00
2023-04-07T00:01:37.908Z,0.00
2023-04-07T00:02:37.832Z,0.00
2023-04-07T00:03:37.884Z,0.00
2023-04-07T00:04:37.783Z,0.00
2023-04-07T00:05:37.701Z,0.00
2023-04-07T00:06:37.709Z,0.00
2023-04-07T00:07:45.258Z,0.00
2023-04-07T00:08:38.660Z,0.00
2023-04-07T00:09:37.662Z,0.00
2023-04-07T00:10:37.652Z,0.00
2023-04-07T00:11:37.636Z,0.00
2023-04-07T00:12:37.625Z,0.00
2023-04-07T00:13:37.602Z,0.00
2023-04-07T00:14:37.601Z,0.00
2023-04-07T00:15:37.602Z,0.00
2023-04-07T00:16:37.569Z,0.00
2023-04-07T00:17:37.611Z,0.00
2023-04-07T00:18:37.557Z,0.00
2023-04-07T00:19:37.562Z,0.00
2023-04-07T00:20:37.540Z,0.00
2023-04-07T00:21:37.549Z,0.00
2023-04-07T00:22:37.514Z,0.00
2023-04-07T00:23:37.499Z,0.00
2023-04-07T00:24:37.527Z,0.00
2023-04-07T00:25:37.492Z,0.00
2023-04-07T00:26:38.599Z,0.00
2023-04-07T00:27:37.457Z,0.00
2023-04-07T00:28:37.445Z,0.00
2023-04-07T00:29:37.452Z,0.00
2023-04-07T00:30:37.423Z,0.00
2023-04-07T00:31:37.434Z,0.00
2023-04-07T00:32:37.446Z,0.00
2023-04-07T00:33:37.390Z,0.00
2023-04-07T00:34:37.390Z,0.00
2023-04-07T00:35:37.447Z,0.00
2023-04-07T00:36:37.349Z,0.00
2023-04-07T00:37:37.356Z,0.00
2023-04-07T00:38:37.334Z,0.00
2023-04-07T00:39:37.318Z,0.00
2023-04-07T00:40:37.288Z,0.00
2023-04-07T00:41:37.288Z,0.00
2023-04-07T00:42:37.313Z,0.00
2023-04-07T00:43:37.264Z,0.00
2023-04-07T00:44:37.270Z,0.00
2023-04-07T00:45:37.266Z,0.00
2023-04-07T00:46:37.266Z,0.00
2023-04-07T00:47:37.240Z,0.00
2023-04-07T00:48:37.212Z,0.00
2023-04-07T00:49:37.200Z,0.00
2023-04-07T00:50:37.191Z,0.00
2023-04-07T00:51:37.222Z,0.00
2023-04-07T00:52:37.178Z,0.00
2023-04-07T00:53:37.146Z,0.00
2023-04-07T00:54:37.166Z,0.00
2023-04-07T00:55:37.135Z,0.00
2023-04-07T00:56:37.151Z,0.00
2023-04-07T00:57:37.114Z,0.00
2023-04-07T00:58:37.108Z,0.00
2023-04-07T00:59:37.105Z,0.00
2023-04-07T01:00:37.079Z,0.00
2023-04-07T01:01:37.132Z,0.00
2023-04-07T01:02:37.287Z,0.00
2023-04-07T01:03:37.331Z,0.00
2023-04-07T01:04:37.186Z,0.00
2023-04-07T01:05:37.046Z,0.00
2023-04-07T01:06:37.024Z,0.00
2023-04-07T01:07:37.013Z,0.00
2023-04-07T01:08:36.984Z,0.00
2023-04-07T01:09:36.983Z,0.00
2023-04-07T01:10:36.982Z,0.00
2023-04-07T01:11:36.932Z,0.00
2023-04-07T01:12:36.942Z,0.00
2023-04-07T01:13:36.918Z,0.00
2023-04-07T01:14:36.945Z,0.00
2023-04-07T01:15:36.906Z,0.00
2023-04-07T01:16:36.942Z,0.00
2023-04-07T01:17:36.932Z,0.00
2023-04-07T01:18:36.882Z,0.00
2023-04-07T01:19:36.890Z,0.00
2023-04-07T01:20:36.872Z,0.00
2023-04-07T01:21:36.828Z,0.00
2023-04-07T01:22:36.819Z,0.00
2023-04-07T01:23:36.835Z,0.00
2023-04-07T01:24:36.812Z,0.00
2023-04-07T01:25:36.815Z,0.00
2023-04-07T01:26:36.788Z,0.00
2023-04-07T01:27:36.775Z,0.00
2023-04-07T01:28:36.784Z,0.00
2023-04-07T01:29:36.824Z,0.00
2023-04-07T01:30:36.731Z,0.00
2023-04-07T01:31:36.780Z,0.00
2023-04-07T01:32:36.743Z,0.00
2023-04-07T01:33:37.800Z,0.00
2023-04-07T01:34:36.723Z,0.00
2023-04-07T01:35:36.679Z,0.00
2023-04-07T01:36:36.683Z,0.00
2023-04-07T01:37:36.653Z,0.00
2023-04-07T01:38:36.659Z,0.00
2023-04-07T01:39:36.648Z,0.00
2023-04-07T01:40:36.620Z,0.00
2023-04-07T01:41:36.614Z,0.00
2023-04-07T01:42:36.621Z,0.00
2023-04-07T01:43:36.668Z,0.00
2023-04-07T01:44:36.587Z,0.00
2023-04-07T01:45:36.888Z,0.00
2023-04-07T01:46:36.888Z,0.00
2023-04-07T01:47:36.674Z,0.00
2023-04-07T01:48:36.573Z,0.00
2023-04-07T01:49:36.575Z,0.00
2023-04-07T01:50:36.525Z,0.00
2023-04-07T01:51:36.512Z,0.00
2023-04-07T01:52:36.640Z,0.00
2023-04-07T01:53:36.492Z,0.00
2023-04-07T01:54:36.512Z,0.00
2023-04-07T01:55:36.454Z,0.00
2023-04-07T01:56:36.454Z,0.00
2023-04-07T01:57:36.435Z,0.00
2023-04-07T01:58:36.420Z,0.00
2023-04-07T01:59:36.433Z,0.00
2023-04-07T02:00:36.429Z,0.00
2023-04-07T02:01:36.536Z,0.00
2023-04-07T02:02:36.528Z,0.00
2023-04-07T02:03:36.473Z,0.00
2023-04-07T02:04:36.370Z,0.00
2023-04-07T02:05:36.390Z,0.00
2023-04-07T02:06:36.336Z,0.00
2023-04-07T02:07:36.324Z,0.00
2023-04-07T02:08:36.317Z,0.00
2023-04-07T02:09:36.302Z,0.00
2023-04-07T02:10:36.624Z,0.00
2023-04-07T02:11:36.291Z,0.00
2023-04-07T02:12:36.285Z,0.00
2023-04-07T02:13:36.269Z,0.00
2023-04-07T02:14:36.244Z,0.00
2023-04-07T02:15:36.246Z,0.00
2023-04-07T02:16:36.246Z,0.00
2023-04-07T02:17:36.276Z,0.00
2023-04-07T02:18:36.213Z,0.00
2023-04-07T02:19:36.209Z,0.00
2023-04-07T02:20:36.175Z,0.00
2023-04-07T02:21:36.180Z,0.00
2023-04-07T02:22:36.182Z,0.00
2023-04-07T02:23:36.160Z,0.00
2023-04-07T02:24:36.155Z,0.00
2023-04-07T02:25:36.116Z,0.00
2023-04-07T02:26:36.162Z,0.00
2023-04-07T02:27:36.091Z,0.00
2023-04-07T02:28:36.107Z,0.00
2023-04-07T02:29:36.088Z,0.00
2023-04-07T02:30:36.078Z,0.00
2023-04-07T02:31:36.097Z,0.00
2023-04-07T02:32:36.091Z,0.00
2023-04-07T02:33:36.032Z,0.00
2023-04-07T02:34:36.035Z,0.00
2023-04-07T02:35:36.026Z,0.00
2023-04-07T02:36:36.022Z,0.00
2023-04-07T02:37:35.997Z,0.00
2023-04-07T02:38:35.963Z,0.00
2023-04-07T02:39:38.836Z,0.00
2023-04-07T02:40:35.973Z,0.00
2023-04-07T02:41:35.954Z,0.00
2023-04-07T02:42:38.929Z,0.00
2023-04-07T02:43:35.942Z,0.00
2023-04-07T02:44:35.927Z,0.00
2023-04-07T02:45:35.943Z,0.00
2023-04-07T02:46:35.951Z,0.00
2023-04-07T02:47:35.934Z,0.00
2023-04-07T02:48:35.901Z,0.00
2023-04-07T02:49:35.868Z,0.00
2023-04-07T02:50:35.842Z,0.00
2023-04-07T02:51:35.814Z,0.00
2023-04-07T02:52:35.866Z,0.00
2023-04-07T02:53:35.830Z,0.00
2023-04-07T02:54:35.799Z,0.00
2023-04-07T02:55:35.825Z,0.00
2023-04-07T02:56:35.761Z,0.00
2023-04-07T02:57:35.772Z,0.00
2023-04-07T02:58:35.744Z,0.00
2023-04-07T02:59:35.740Z,0.00
2023-04-07T03:00:35.724Z,0.00
2023-04-07T03:01:35.736Z,0.00
2023-04-07T03:02:35.817Z,0.00
2023-04-07T03:03:35.762Z,0.00
2023-04-07T03:04:35.730Z,0.00
2023-04-07T03:05:35.686Z,0.00
2023-04-07T03:06:35.641Z,0.00
2023-04-07T03:07:35.639Z,0.00
2023-04-07T03:08:35.642Z,0.00
2023-04-07T03:09:35.628Z,0.00
2023-04-07T03:10:35.614Z,0.00
2023-04-07T03:11:35.602Z,0.00
2023-04-07T03:12:35.593Z,0.00
2023-04-07T03:13:35.573Z,0.00
2023-04-07T03:14:35.587Z,0.00
2023-04-07T03:15:35.589Z,0.00
2023-04-07T03:16:35.572Z,0.00
2023-04-07T03:17:35.608Z,0.00
2023-04-07T03:18:35.565Z,0.00
2023-04-07T03:19:35.543Z,0.00
2023-04-07T03:20:35.511Z,0.00
2023-04-07T03:21:35.497Z,0.00
2023-04-07T03:22:35.527Z,0.00
2023-04-07T03:23:35.478Z,0.00
2023-04-07T03:24:35.454Z,0.00
2023-04-07T03:25:35.445Z,0.00
2023-04-07T03:26:35.457Z,0.00
2023-04-07T03:27:35.423Z,0.00
2023-04-07T03:28:35.539Z,0.00
2023-04-07T03:29:35.398Z,0.00
2023-04-07T03:30:35.443Z,0.00
2023-04-07T03:31:35.363Z,0.00
2023-04-07T03:32:35.426Z,0.00
2023-04-07T03:33:35.355Z,0.00
2023-04-07T03:34:35.405Z,0.00
2023-04-07T03:35:35.314Z,0.00
2023-04-07T03:36:35.330Z,0.00
2023-04-07T03:37:35.310Z,0.00
2023-04-07T03:38:35.308Z,0.00
2023-04-07T03:39:35.325Z,0.00
2023-04-07T03:40:35.288Z,0.00
2023-04-07T03:41:35.267Z,0.00
2023-04-07T03:42:35.541Z,0.00
2023-04-07T03:43:35.256Z,0.00
2023-04-07T03:44:35.244Z,0.00
2023-04-07T03:45:35.227Z,0.00
2023-04-07T03:46:35.273Z,0.00
2023-04-07T03:47:35.205Z,0.00
2023-04-07T03:48:35.193Z,0.00
2023-04-07T03:49:35.215Z,0.00
2023-04-07T03:50:35.166Z,0.00
2023-04-07T03:51:35.187Z,0.00
2023-04-07T03:52:35.149Z,0.00
2023-04-07T03:53:35.149Z,0.00
2023-04-07T03:54:35.138Z,0.00
2023-04-07T03:55:35.131Z,0.00
2023-04-07T03:56:35.104Z,0.00
2023-04-07T03:57:35.114Z,0.00
2023-04-07T03:58:37.893Z,0.00
2023-04-07T03:59:37.077Z,0.00
2023-04-07T04:00:35.049Z,0.00
2023-04-07T04:01:35.206Z,0.00
2023-04-07T04:02:35.150Z,0.00
2023-04-07T04:03:35.198Z,0.00
2023-04-07T04:04:35.382Z,0.00
2023-04-07T04:05:35.006Z,0.00
2023-04-07T04:06:35.066Z,0.00
2023-04-07T04:07:35.033Z,0.00
2023-04-07T04:08:34.972Z,0.00
2023-04-07T04:09:35.034Z,0.00
2023-04-07T04:10:34.955Z,0.00
2023-04-07T04:11:34.945Z,0.00
2023-04-07T04:12:34.919Z,0.00
2023-04-07T04:13:34.889Z,0.00
2023-04-07T04:14:34.930Z,0.00
2023-04-07T04:15:35.343Z,0.00
2023-04-07T04:16:34.975Z,0.00
2023-04-07T04:17:34.941Z,0.00
2023-04-07T04:18:37.616Z,0.00
2023-04-07T04:19:37.661Z,0.00
2023-04-07T04:20:34.889Z,0.00
2023-04-07T04:21:34.816Z,0.00
2023-04-07T04:22:34.833Z,0.00
2023-04-07T04:23:34.843Z,0.00
2023-04-07T04:24:34.795Z,0.00
2023-04-07T04:25:34.776Z,0.00
2023-04-07T04:26:34.753Z,0.00
2023-04-07T04:27:35.186Z,0.00
2023-04-07T04:28:38.971Z,0.00
2023-04-07T04:29:34.762Z,0.00
2023-04-07T04:30:34.783Z,0.00
2023-04-07T04:31:34.744Z,0.00
2023-04-07T04:32:34.753Z,0.00
2023-04-07T04:33:34.697Z,0.00
2023-04-07T04:34:34.714Z,0.00
2023-04-07T04:35:34.673Z,0.00
2023-04-07T04:36:35.677Z,0.00
2023-04-07T04:37:34.636Z,0.00
2023-04-07T04:38:34.678Z,0.00
2023-04-07T04:39:34.606Z,0.00
2023-04-07T04:40:34.661Z,0.00
2023-04-07T04:41:34.646Z,0.00
2023-04-07T04:42:34.595Z,0.00
2023-04-07T04:43:34.563Z,0.00
2023-04-07T04:44:34.589Z,0.00
2023-04-07T04:45:34.547Z,0.00
2023-04-07T04:46:34.600Z,0.00
2023-04-07T04:47:34.597Z,0.00
2023-04-07T04:48:34.550Z,0.00
2023-04-07T04:49:34.508Z,0.00
2023-04-07T04:50:34.570Z,0.00
2023-04-07T04:51:34.523Z,0.00
2023-04-07T04:52:34.530Z,0.00
2023-04-07T04:53:34.465Z,0.00
2023-04-07T04:54:34.519Z,0.00
2023-04-07T04:55:34.455Z,0.00
2023-04-07T04:56:34.480Z,0.00
2023-04-07T04:57:34.419Z,0.00
2023-04-07T04:58:34.420Z,0.00
2023-04-07T04:59:34.533Z,0.00
2023-04-07T05:00:34.417Z,0.00
2023-04-07T05:01:34.438Z,0.00
2023-04-07T05:02:34.436Z,0.00
2023-04-07T05:03:34.506Z,0.00
2023-04-07T05:04:34.419Z,5.62
2023-04-07T05:05:34.324Z,5.62
2023-04-07T05:06:34.323Z,5.62
2023-04-07T05:07:34.317Z,5.62
2023-04-07T05:08:34.282Z,5.62
2023-04-07T05:09:34.283Z,5.62
2023-04-07T05:10:34.269Z,5.62
2023-04-07T05:11:34.310Z,5.62
2023-04-07T05:12:34.260Z,5.62
2023-04-07T05:13:34.262Z,5.62
2023-04-07T05:14:34.246Z,5.62
2023-04-07T05:15:34.262Z,11.25
2023-04-07T05:16:34.221Z,11.25
2023-04-07T05:17:34.251Z,11.25
2023-04-07T05:18:34.176Z,11.25
2023-04-07T05:19:34.236Z,11.25
2023-04-07T05:20:34.155Z,11.25
2023-04-07T05:21:34.169Z,11.25
2023-04-07T05:22:34.223Z,11.25
2023-04-07T05:23:34.145Z,11.25
2023-04-07T05:24:34.473Z,11.25
2023-04-07T05:25:34.126Z,11.25
2023-04-07T05:26:34.133Z,16.88
2023-04-07T05:27:34.412Z,11.25
2023-04-07T05:28:34.079Z,11.25
2023-04-07T05:29:34.107Z,11.25
2023-04-07T05:30:34.045Z,11.25
2023-04-07T05:31:34.059Z,11.25
2023-04-07T05:32:34.143Z,16.88
2023-04-07T05:33:33.989Z,16.88
2023-04-07T05:34:34.023Z,16.88
2023-04-07T05:35:33.980Z,16.88
2023-04-07T05:36:33.989Z,16.88
2023-04-07T05:37:34.000Z,16.88
2023-04-07T05:38:33.984Z,16.88
2023-04-07T05:39:33.968Z,11.25
2023-04-07T05:40:36.934Z,11.25
2023-04-07T05:41:33.919Z,11.25
2023-04-07T05:42:33.910Z,11.25
2023-04-07T05:43:33.913Z,16.88
2023-04-07T05:44:33.892Z,16.88
2023-04-07T05:45:33.959Z,11.25
2023-04-07T05:46:33.903Z,11.25
2023-04-07T05:47:33.901Z,11.25
2023-04-07T05:48:33.828Z,11.25
2023-04-07T05:49:33.867Z,11.25
2023-04-07T05:50:34.145Z,16.88
2023-04-07T05:51:33.796Z,16.88
2023-04-07T05:52:33.819Z,16.88
2023-04-07T05:53:35.771Z,16.88
2023-04-07T05:54:34.097Z,16.88
2023-04-07T05:55:33.762Z,16.88
2023-04-07T05:56:33.759Z,22.50
2023-04-07T05:57:33.768Z,22.50
2023-04-07T05:58:33.779Z,22.50
2023-04-07T05:59:33.745Z,22.50
2023-04-07T06:00:34.104Z,28.12
2023-04-07T06:01:33.784Z,28.12
2023-04-07T06:02:33.801Z,28.12
2023-04-07T06:03:33.744Z,28.12
2023-04-07T06:04:33.680Z,28.12
2023-04-07T06:05:33.686Z,33.75
2023-04-07T06:06:33.979Z,33.75
2023-04-07T06:07:33.630Z,39.38
2023-04-07T06:08:33.633Z,39.38
2023-04-07T06:09:33.676Z,39.38
2023-04-07T06:10:33.650Z,45.00
2023-04-07T06:11:33.641Z,45.00
2023-04-07T06:12:33.626Z,50.62
2023-04-07T06:13:33.541Z,50.62
2023-04-07T06:14:33.576Z,50.62
2023-04-07T06:15:33.545Z,45.00
2023-04-07T06:16:33.570Z,45.00
2023-04-07T06:17:33.529Z,45.00
2023-04-07T06:18:33.523Z,45.00
2023-04-07T06:19:33.523Z,50.62
2023-04-07T06:20:33.481Z,50.62
2023-04-07T06:21:33.475Z,50.62
2023-04-07T06:22:33.465Z,50.62
2023-04-07T06:23:33.502Z,50.62
2023-04-07T06:24:33.496Z,50.62
2023-04-07T06:25:33.432Z,56.25
2023-04-07T06:26:33.422Z,56.25
2023-04-07T06:27:33.413Z,56.25
2023-04-07T06:28:33.423Z,61.88
2023-04-07T06:29:33.432Z,61.88
2023-04-07T06:30:33.394Z,61.88
2023-04-07T06:31:33.449Z,61.88
2023-04-07T06:32:33.505Z,67.50
2023-04-07T06:33:33.339Z,73.12
2023-04-07T06:34:33.346Z,78.75
2023-04-07T06:35:33.337Z,78.75
2023-04-07T06:36:33.302Z,78.75
2023-04-07T06:37:33.372Z,84.38
2023-04-07T06:38:33.310Z,84.38
2023-04-07T06:39:33.298Z,84.38
2023-04-07T06:40:33.240Z,90.00
2023-04-07T06:41:36.053Z,95.62
2023-04-07T06:42:33.264Z,90.00
2023-04-07T06:43:33.239Z,90.00
2023-04-07T06:44:33.222Z,90.00
2023-04-07T06:45:33.237Z,90.00
2023-04-07T06:46:33.236Z,90.00
2023-04-07T06:47:33.245Z,90.00
2023-04-07T06:48:33.195Z,95.62
2023-04-07T06:49:34.642Z,90.00
2023-04-07T06:50:33.175Z,90.00
2023-04-07T06:51:33.156Z,90.00
2023-04-07T06:52:33.161Z,84.38
2023-04-07T06:53:33.123Z,84.38
2023-04-07T06:54:33.190Z,90.00
2023-04-07T06:55:33.114Z,90.00
2023-04-07T06:56:33.106Z,90.00
2023-04-07T06:57:33.067Z,90.00
2023-04-07T06:58:33.067Z,90.00
2023-04-07T06:59:33.340Z,90.00
2023-04-07T07:00:33.566Z,84.38
2023-04-07T07:01:33.198Z,84.38
2023-04-07T07:02:33.111Z,90.00
2023-04-07T07:03:33.088Z,84.38
2023-04-07T07:04:33.056Z,84.38
2023-04-07T07:05:32.981Z,84.38
2023-04-07T07:06:32.959Z,84.38
2023-04-07T07:07:33.036Z,84.38
2023-04-07T07:08:32.982Z,84.38
2023-04-07T07:09:32.944Z,78.75
2023-04-07T07:10:32.922Z,84.38
2023-04-07T07:11:32.901Z,84.38
2023-04-07T07:12:32.906Z,84.38
2023-04-07T07:13:32.933Z,84.38
2023-04-07T07:14:32.905Z,84.38
2023-04-07T07:15:32.874Z,84.38
2023-04-07T07:16:32.870Z,84.38
2023-04-07T07:17:32.933Z,78.75
2023-04-07T07:18:32.873Z,78.75
2023-04-07T07:19:32.825Z,78.75
2023-04-07T07:20:33.127Z,78.75
2023-04-07T07:21:32.916Z,90.00
2023-04-07T07:22:32.793Z,95.62
2023-04-07T07:23:32.832Z,101.25
2023-04-07T07:24:32.843Z,106.88
2023-04-07T07:25:32.770Z,106.88
2023-04-07T07:26:32.794Z,112.50
2023-04-07T07:27:36.102Z,118.12
2023-04-07T07:28:32.731Z,112.50
2023-04-07T07:29:32.724Z,106.88
2023-04-07T07:30:35.453Z,106.88
2023-04-07T07:31:32.779Z,106.88
2023-04-07T07:32:32.691Z,112.50
2023-04-07T07:33:32.716Z,112.50
2023-04-07T07:34:32.915Z,112.50
2023-04-07T07:35:32.654Z,118.12
2023-04-07T07:36:32.641Z,118.12
2023-04-07T07:37:32.636Z,118.12
2023-04-07T07:38:33.367Z,112.50
2023-04-07T07:39:32.600Z,101.25
2023-04-07T07:40:32.574Z,95.62
2023-04-07T07:41:32.601Z,95.62
2023-04-07T07:42:32.561Z,95.62
2023-04-07T07:43:32.580Z,95.62
2023-04-07T07:44:32.704Z,95.62
2023-04-07T07:45:32.566Z,95.62
2023-04-07T07:46:32.544Z,95.62
2023-04-07T07:47:32.537Z,101.25
2023-04-07T07:48:32.506Z,106.88
2023-04-07T07:49:32.478Z,95.62
2023-04-07T07:50:32.700Z,95.62
2023-04-07T07:51:32.484Z,101.25
2023-04-07T07:52:32.453Z,101.25
2023-04-07T07:53:32.450Z,95.62
2023-04-07T07:54:32.751Z,90.00
2023-04-07T07:55:32.404Z,90.00
2023-04-07T07:56:32.431Z,90.00
2023-04-07T07:57:32.386Z,95.62
2023-04-07T07:58:32.410Z,101.25
2023-04-07T07:59:32.689Z,106.88
2023-04-07T08:00:32.345Z,106.88
2023-04-07T08:01:32.395Z,112.50
2023-04-07T08:02:32.384Z,112.50
2023-04-07T08:03:32.455Z,112.50
2023-04-07T08:04:32.320Z,112.50
2023-04-07T08:05:32.299Z,112.50
2023-04-07T08:06:32.279Z,112.50
2023-04-07T08:07:32.308Z,112.50
2023-04-07T08:08:32.592Z,118.12
2023-04-07T08:09:32.303Z,112.50
2023-04-07T08:10:32.244Z,112.50
2023-04-07T08:11:32.225Z,118.12
2023-04-07T08:12:32.205Z,112.50
2023-04-07T08:13:32.214Z,106.88
2023-04-07T08:14:32.236Z,112.50
2023-04-07T08:15:32.186Z,112.50
2023-04-07T08:16:32.240Z,112.50
2023-04-07T08:17:32.193Z,118.12
2023-04-07T08:18:32.183Z,123.75
2023-04-07T08:19:32.147Z,129.38
2023-04-07T08:20:32.121Z,135.00
2023-04-07T08:21:32.154Z,129.38
2023-04-07T08:22:32.101Z,135.00
2023-04-07T08:23:32.099Z,135.00
2023-04-07T08:24:32.084Z,129.38
2023-04-07T08:25:32.097Z,135.00
2023-04-07T08:26:32.090Z,135.00
2023-04-07T08:27:32.081Z,135.00
2023-04-07T08:28:32.033Z,135.00
2023-04-07T08:29:32.406Z,146.25
2023-04-07T08:30:32.009Z,140.62
2023-04-07T08:31:32.065Z,135.00
2023-04-07T08:32:33.822Z,129.38
2023-04-07T08:33:31.971Z,129.38
2023-04-07T08:34:31.974Z,129.38
2023-04-07T08:35:31.952Z,129.38
2023-04-07T08:36:31.978Z,123.75
2023-04-07T08:37:31.947Z,129.38
2023-04-07T08:38:31.920Z,123.75
2023-04-07T08:39:31.931Z,112.50
2023-04-07T08:40:32.169Z,112.50
2023-04-07T08:41:31.891Z,118.12
2023-04-07T08:42:31.919Z,112.50
2023-04-07T08:43:31.871Z,118.12
2023-04-07T08:44:31.875Z,118.12
2023-04-07T08:45:31.873Z,123.75
2023-04-07T08:46:33.729Z,129.38
2023-04-07T08:47:31.833Z,129.38
2023-04-07T08:48:31.835Z,135.00
2023-04-07T08:49:34.674Z,140.62
2023-04-07T08:50:31.838Z,140.62
2023-04-07T08:51:32.085Z,157.50
2023-04-07T08:52:31.771Z,163.12
2023-04-07T08:53:31.859Z,174.38
2023-04-07T08:54:31.805Z,180.00
2023-04-07T08:55:31.745Z,174.38
2023-04-07T08:56:31.713Z,180.00
2023-04-07T08:57:31.729Z,185.62
2023-04-07T08:58:31.696Z,180.00
2023-04-07T08:59:31.732Z,174.38
2023-04-07T09:00:31.672Z,174.38
2023-04-07T09:01:31.786Z,168.75
2023-04-07T09:02:31.787Z,174.38
2023-04-07T09:03:31.742Z,174.38
2023-04-07T09:04:31.641Z,168.75
2023-04-07T09:05:31.648Z,163.12
2023-04-07T09:06:31.623Z,174.38
2023-04-07T09:07:31.581Z,196.88
2023-04-07T09:08:31.580Z,208.12
2023-04-07T09:09:31.609Z,213.75
2023-04-07T09:10:31.558Z,213.75
2023-04-07T09:11:31.541Z,208.12
2023-04-07T09:12:31.553Z,202.50
2023-04-07T09:13:31.537Z,213.75
2023-04-07T09:14:31.534Z,230.62
2023-04-07T09:15:31.527Z,253.12
2023-04-07T09:16:31.567Z,264.38
2023-04-07T09:17:31.559Z,275.62
2023-04-07T09:18:31.496Z,264.38
2023-04-07T09:19:31.470Z,236.25
2023-04-07T09:20:31.452Z,219.38
2023-04-07T09:21:31.443Z,213.75
2023-04-07T09:22:31.405Z,213.75
2023-04-07T09:23:31.407Z,208.12
2023-04-07T09:24:31.436Z,208.12
2023-04-07T09:25:31.392Z,208.12
2023-04-07T09:26:31.370Z,208.12
2023-04-07T09:27:31.368Z,202.50
2023-04-07T09:28:31.354Z,202.50
2023-04-07T09:29:31.330Z,191.25
2023-04-07T09:30:31.337Z,185.62
2023-04-07T09:31:31.372Z,185.62
2023-04-07T09:32:31.336Z,208.12
2023-04-07T09:33:31.342Z,219.38
2023-04-07T09:34:31.288Z,225.00
2023-04-07T09:35:31.289Z,236.25
2023-04-07T09:36:31.581Z,236.25
2023-04-07T09:37:31.253Z,225.00
2023-04-07T09:38:31.249Z,258.75
2023-04-07T09:39:31.278Z,253.12
2023-04-07T09:40:31.210Z,225.00
2023-04-07T09:41:31.261Z,202.50
2023-04-07T09:42:31.471Z,191.25
2023-04-07T09:43:31.203Z,180.00
2023-04-07T09:44:31.175Z,174.38
2023-04-07T09:45:35.347Z,185.62
2023-04-07T09:46:32.231Z,208.12
2023-04-07T09:47:31.152Z,213.75
2023-04-07T09:48:31.137Z,230.62
2023-04-07T09:49:31.157Z,236.25
2023-04-07T09:50:31.096Z,230.62
2023-04-07T09:51:31.085Z,230.62
2023-04-07T09:52:31.101Z,230.62
2023-04-07T09:53:31.066Z,236.25
2023-04-07T09:54:31.056Z,236.25
2023-04-07T09:55:31.033Z,225.00
2023-04-07T09:56:31.048Z,213.75
2023-04-07T09:57:31.070Z,208.12
2023-04-07T09:58:31.009Z,208.12
2023-04-07T09:59:31.051Z,202.50
2023-04-07T10:00:31.001Z,219.38
2023-04-07T10:01:31.061Z,270.00
2023-04-07T10:02:31.033Z,320.62
2023-04-07T10:03:31.044Z,326.25
2023-04-07T10:04:31.046Z,315.00
2023-04-07T10:05:30.935Z,309.38
2023-04-07T10:06:30.951Z,309.38
2023-04-07T10:07:30.916Z,303.75
2023-04-07T10:08:30.902Z,292.50
2023-04-07T10:09:30.917Z,286.88
2023-04-07T10:10:30.868Z,275.62
2023-04-07T10:11:30.860Z,264.38
2023-04-07T10:12:30.853Z,253.12
2023-04-07T10:13:31.008Z,241.88
2023-04-07T10:14:30.869Z,236.25
2023-04-07T10:15:30.818Z,241.88
2023-04-07T10:16:30.849Z,247.50
2023-04-07T10:17:33.309Z,247.50
2023-04-07T10:18:30.784Z,247.50
2023-04-07T10:19:30.865Z,241.88
2023-04-07T10:20:31.126Z,230.62
2023-04-07T10:21:32.836Z,213.75
2023-04-07T10:22:30.756Z,213.75
2023-04-07T10:23:31.952Z,213.75
2023-04-07T10:24:30.721Z,219.38
2023-04-07T10:25:30.713Z,219.38
2023-04-07T10:26:30.689Z,225.00
2023-04-07T10:27:30.694Z,213.75
2023-04-07T10:28:30.658Z,202.50
2023-04-07T10:29:30.704Z,196.88
2023-04-07T10:30:30.659Z,185.62
2023-04-07T10:31:30.818Z,168.75
2023-04-07T10:32:30.647Z,151.88
2023-04-07T10:33:30.839Z,140.62
2023-04-07T10:34:30.586Z,140.62
2023-04-07T10:35:30.620Z,140.62
2023-04-07T10:36:30.601Z,146.25
2023-04-07T10:37:30.563Z,140.62
2023-04-07T10:38:30.563Z,129.38
2023-04-07T10:39:30.574Z,123.75
2023-04-07T10:40:30.597Z,118.12
2023-04-07T10:41:30.515Z,112.50
2023-04-07T10:42:31.651Z,106.88
2023-04-07T10:43:30.574Z,106.88
2023-04-07T10:44:30.493Z,101.25
2023-04-07T10:45:30.571Z,95.62
2023-04-07T10:46:30.494Z,95.62
2023-04-07T10:47:31.727Z,106.88
2023-04-07T10:48:30.432Z,112.50
2023-04-07T10:49:30.437Z,112.50
2023-04-07T10:50:30.422Z,129.38
2023-04-07T10:51:30.390Z,129.38
2023-04-07T10:52:30.387Z,135.00
2023-04-07T10:53:30.853Z,140.62
2023-04-07T10:54:30.379Z,146.25
2023-04-07T10:55:30.342Z,151.88
2023-04-07T10:56:30.334Z,157.50
2023-04-07T10:57:30.340Z,174.38
2023-04-07T10:58:30.339Z,185.62
2023-04-07T10:59:30.309Z,202.50
2023-04-07T11:00:30.319Z,230.62
2023-04-07T11:01:30.352Z,236.25
2023-04-07T11:02:31.473Z,247.50
2023-04-07T11:03:30.409Z,247.50
2023-04-07T11:04:31.116Z,247.50
2023-04-07T11:05:31.090Z,258.75
2023-04-07T11:06:30.252Z,264.38
2023-04-07T11:07:30.484Z,253.12
2023-04-07T11:08:30.232Z,253.12
2023-04-07T11:09:30.251Z,258.75
2023-04-07T11:10:30.186Z,275.62
2023-04-07T11:11:30.235Z,286.88
2023-04-07T11:12:30.417Z,303.75
2023-04-07T11:13:30.153Z,326.25
2023-04-07T11:14:30.138Z,348.75
2023-04-07T11:15:30.154Z,348.75
2023-04-07T11:16:30.157Z,320.62
2023-04-07T11:17:30.145Z,281.25
2023-04-07T11:18:30.097Z,264.38
2023-04-07T11:19:30.057Z,270.00
2023-04-07T11:20:30.050Z,275.62
2023-04-07T11:21:30.125Z,281.25
2023-04-07T11:22:30.711Z,286.88
2023-04-07T11:23:30.800Z,292.50
2023-04-07T11:24:30.035Z,309.38
2023-04-07T11:25:30.061Z,315.00
2023-04-07T11:26:38.046Z,315.00
2023-04-07T11:27:29.965Z,292.50
2023-04-07T11:28:37.314Z,275.62
2023-04-07T11:29:29.941Z,264.38
2023-04-07T11:30:29.948Z,264.38
2023-04-07T11:31:30.462Z,264.38
2023-04-07T11:32:30.015Z,258.75
2023-04-07T11:33:29.918Z,247.50
2023-04-07T11:34:30.032Z,247.50
2023-04-07T11:35:29.926Z,264.38
2023-04-07T11:36:30.269Z,258.75
2023-04-07T11:37:29.853Z,247.50
2023-04-07T11:38:29.927Z,264.38
2023-04-07T11:39:29.884Z,264.38
2023-04-07T11:40:29.824Z,241.88
2023-04-07T11:41:29.962Z,241.88
2023-04-07T11:42:29.899Z,241.88
2023-04-07T11:43:30.735Z,236.25
2023-04-07T11:44:29.774Z,219.38
2023-04-07T11:45:29.784Z,208.12
2023-04-07T11:46:29.824Z,180.00
2023-04-07T11:47:29.789Z,157.50
2023-04-07T11:48:29.765Z,146.25
2023-04-07T11:49:29.724Z,157.50
2023-04-07T11:50:29.712Z,174.38
2023-04-07T11:51:30.658Z,191.25
2023-04-07T11:52:29.693Z,236.25
2023-04-07T11:53:29.689Z,298.12
2023-04-07T11:54:29.664Z,331.88
2023-04-07T11:55:30.423Z,365.62
2023-04-07T11:56:29.639Z,427.50
2023-04-07T11:57:29.664Z,427.50
2023-04-07T11:58:29.665Z,421.88
2023-04-07T11:59:29.602Z,399.38
2023-04-07T12:00:29.588Z,331.88
2023-04-07T12:01:29.758Z,264.38
2023-04-07T12:02:29.707Z,225.00
2023-04-07T12:03:29.671Z,208.12
2023-04-07T12:04:29.649Z,185.62
2023-04-07T12:05:29.528Z,168.75
2023-04-07T12:06:29.608Z,151.88
2023-04-07T12:07:29.533Z,135.00
2023-04-07T12:08:30.594Z,129.38
2023-04-07T12:09:29.528Z,129.38
2023-04-07T12:10:29.476Z,129.38
2023-04-07T12:11:29.486Z,140.62
2023-04-07T12:12:29.456Z,163.12
2023-04-07T12:13:29.464Z,191.25
2023-04-07T12:14:29.439Z,225.00
2023-04-07T12:15:29.410Z,247.50
2023-04-07T12:16:29.454Z,247.50
2023-04-07T12:17:29.455Z,253.12
2023-04-07T12:18:29.452Z,303.75
2023-04-07T12:19:29.384Z,303.75
2023-04-07T12:20:29.381Z,326.25
2023-04-07T12:21:29.354Z,331.88
2023-04-07T12:22:29.333Z,388.12
2023-04-07T12:23:29.331Z,421.88
2023-04-07T12:24:29.325Z,433.12
2023-04-07T12:25:29.301Z,421.88
2023-04-07T12:26:29.304Z,427.50
2023-04-07T12:27:41.653Z,433.12
2023-04-07T12:28:30.320Z,450.00
2023-04-07T12:29:29.488Z,438.75
2023-04-07T12:30:30.832Z,388.12
2023-04-07T12:31:29.276Z,331.88
2023-04-07T12:32:29.337Z,281.25
2023-04-07T12:33:29.217Z,247.50
2023-04-07T12:34:29.200Z,241.88
2023-04-07T12:35:29.239Z,281.25
2023-04-07T12:36:29.217Z,376.88
2023-04-07T12:37:30.350Z,478.12
2023-04-07T12:38:30.249Z,517.50
2023-04-07T12:39:29.162Z,528.75
2023-04-07T12:40:29.133Z,534.38
2023-04-07T12:41:29.152Z,534.38
2023-04-07T12:42:29.125Z,534.38
2023-04-07T12:43:29.126Z,528.75
2023-04-07T12:44:29.134Z,528.75
2023-04-07T12:45:29.067Z,540.00
2023-04-07T12:46:29.107Z,545.62
2023-04-07T12:47:29.081Z,551.25
2023-04-07T12:48:29.026Z,534.38
2023-04-07T12:49:29.712Z,500.62
2023-04-07T12:50:29.046Z,506.25
2023-04-07T12:51:29.008Z,517.50
2023-04-07T12:52:29.011Z,534.38